createdAt,value
2016-09-12T00:00:43.895Z,0
2016-09-12T00:01:43.868Z,0
2016-09-12T00:02:43.660Z,0
2016-09-12T00:03:43.686Z,0
2016-09-12T00:04:43.969Z,0
2016-09-12T00:05:44.053Z,0
2016-09-12T00:06:43.711Z,0
2016-09-12T00:07:43.690Z,0
2016-09-12T00:08:44.081Z,0
2016-09-12T00:09:44.126Z,0
2016-09-12T00:10:44.076Z,0
2016-09-12T00:11:44.200Z,0
2016-09-12T00:12:43.805Z,0
2016-09-12T00:13:44.807Z,0
2016-09-12T00:14:44.037Z,0
2016-09-12T00:15:43.859Z,0
2016-09-12T00:16:44.007Z,0
2016-09-12T00:17:44.258Z,0
2016-09-12T00:18:43.954Z,0
2016-09-12T00:19:44.267Z,0
2016-09-12T00:20:44.750Z,0
2016-09-12T00:21:44.642Z,0
2016-09-12T00:22:44.080Z,0
2016-09-12T00:23:44.416Z,0
2016-09-12T00:24:44.198Z,0
2016-09-12T00:25:44.495Z,0
2016-09-12T00:26:44.663Z,0
2016-09-12T00:27:44.204Z,0
2016-09-12T00:28:44.163Z,0
2016-09-12T00:29:44.197Z,0
2016-09-12T00:30:44.873Z,0
2016-09-12T00:31:44.536Z,0
2016-09-12T00:32:44.354Z,0
2016-09-12T00:33:44.390Z,0
2016-09-12T00:34:44.490Z,0
2016-09-12T00:35:44.283Z,0
2016-09-12T00:36:44.339Z,0
2016-09-12T00:37:44.699Z,0
2016-09-12T00:38:44.735Z,0
2016-09-12T00:39:45.089Z,0
2016-09-12T00:40:44.487Z,0
2016-09-12T00:41:44.819Z,0
2016-09-12T00:42:44.908Z,0
2016-09-12T00:43:44.478Z,0
2016-09-12T00:44:44.609Z,0
2016-09-12T00:45:44.553Z,0
2016-09-12T00:46:44.675Z,0
2016-09-12T00:47:44.887Z,0
2016-09-12T00:48:44.713Z,0
2016-09-12T00:49:44.928Z,0
2016-09-12T00:50:44.949Z,0
2016-09-12T00:51:45.171Z,0
2016-09-12T00:52:44.984Z,0
2016-09-12T00:53:45.074Z,0
2016-09-12T00:54:44.707Z,0
2016-09-12T00:55:44.889Z,0
2016-09-12T00:56:45.351Z,0
2016-09-12T00:57:44.817Z,0
2016-09-12T00:58:44.877Z,0
2016-09-12T00:59:45.306Z,0
2016-09-12T01:00:45.181Z,0
2016-09-12T01:01:44.904Z,0
2016-09-12T01:02:44.934Z,0
2016-09-12T01:03:45.228Z,0
2016-09-12T01:04:45.306Z,0
2016-09-12T01:05:45.323Z,0
2016-09-12T01:06:45.014Z,0
2016-09-12T01:07:45.330Z,0
2016-09-12T01:08:45.370Z,0
2016-09-12T01:09:45.510Z,0
2016-09-12T01:10:45.409Z,0
2016-09-12T01:11:45.132Z,0
2016-09-12T01:12:45.565Z,0
2016-09-12T01:13:45.157Z,0
2016-09-12T01:14:45.513Z,0
2016-09-12T01:15:45.814Z,0
2016-09-12T01:16:45.541Z,0
2016-09-12T01:17:45.219Z,0
2016-09-12T01:18:45.280Z,0
2016-09-12T01:19:45.929Z,0
2016-09-12T01:20:45.290Z,0
2016-09-12T01:21:45.779Z,0
2016-09-12T01:22:45.658Z,0
2016-09-12T01:23:45.671Z,0
2016-09-12T01:24:45.401Z,0
2016-09-12T01:25:46.369Z,0
2016-09-12T01:26:45.453Z,0
2016-09-12T01:27:45.492Z,0
2016-09-12T01:28:45.471Z,0
2016-09-12T01:29:45.851Z,0
2016-09-12T01:30:45.529Z,0
2016-09-12T01:31:46.350Z,0
2016-09-12T01:32:45.971Z,0
2016-09-12T01:33:45.954Z,0
2016-09-12T01:34:46.101Z,0
2016-09-12T01:35:45.627Z,0
2016-09-12T01:36:45.658Z,0
2016-09-12T01:37:46.320Z,0
2016-09-12T01:38:46.069Z,0
2016-09-12T01:39:45.705Z,0
2016-09-12T01:40:45.829Z,0
2016-09-12T01:41:46.153Z,0
2016-09-12T01:42:45.785Z,0
2016-09-12T01:43:46.167Z,0
2016-09-12T01:44:46.551Z,0
2016-09-12T01:45:45.874Z,0
2016-09-12T01:46:46.579Z,0
2016-09-12T01:47:46.215Z,0
2016-09-12T01:48:46.549Z,0
2016-09-12T01:49:46.046Z,0
2016-09-12T01:50:45.949Z,0
2016-09-12T01:51:45.991Z,0
2016-09-12T01:52:46.710Z,0
2016-09-12T01:53:46.047Z,0
2016-09-12T01:54:46.427Z,0
2016-09-12T01:55:46.177Z,0
2016-09-12T01:56:46.141Z,0
2016-09-12T01:57:46.799Z,0
2016-09-12T01:58:46.260Z,0
2016-09-12T01:59:46.790Z,0
2016-09-12T02:00:46.493Z,0
2016-09-12T02:01:46.507Z,0
2016-09-12T02:02:46.539Z,0
2016-09-12T02:03:46.692Z,0
2016-09-12T02:04:46.299Z,0
2016-09-12T02:05:46.331Z,0
2016-09-12T02:06:47.363Z,0
2016-09-12T02:07:46.739Z,0
2016-09-12T02:08:46.419Z,0
2016-09-12T02:09:46.687Z,0
2016-09-12T02:10:46.722Z,0
2016-09-12T02:11:46.401Z,0
2016-09-12T02:12:46.880Z,0
2016-09-12T02:13:47.142Z,0
2016-09-12T02:14:46.521Z,0
2016-09-12T02:15:46.519Z,0
2016-09-12T02:16:46.570Z,0
2016-09-12T02:17:46.876Z,0
2016-09-12T02:18:47.948Z,0
2016-09-12T02:19:46.897Z,0
2016-09-12T02:20:46.750Z,0
2016-09-12T02:21:46.718Z,0
2016-09-12T02:22:46.786Z,0
2016-09-12T02:23:47.356Z,0
2016-09-12T02:24:46.849Z,0
2016-09-12T02:25:47.047Z,0
2016-09-12T02:26:47.274Z,0
2016-09-12T02:27:46.965Z,0
2016-09-12T02:28:46.805Z,0
2016-09-12T02:29:46.837Z,0
2016-09-12T02:30:47.145Z,0
2016-09-12T02:31:47.195Z,0
2016-09-12T02:32:46.912Z,0
2016-09-12T02:33:46.946Z,0
2016-09-12T02:34:46.938Z,0
2016-09-12T02:35:47.295Z,0
2016-09-12T02:36:47.309Z,0
2016-09-12T02:37:47.319Z,0
2016-09-12T02:38:47.023Z,0
2016-09-12T02:39:47.355Z,0
2016-09-12T02:40:47.058Z,0
2016-09-12T02:41:47.077Z,0
2016-09-12T02:42:47.109Z,0
2016-09-12T02:43:47.143Z,0
2016-09-12T02:44:47.490Z,0
2016-09-12T02:45:47.485Z,0
2016-09-12T02:46:47.535Z,0
2016-09-12T02:47:47.213Z,0
2016-09-12T02:48:47.229Z,0
2016-09-12T02:49:47.244Z,0
2016-09-12T02:50:47.300Z,0
2016-09-12T02:51:47.299Z,0
2016-09-12T02:52:47.342Z,0
2016-09-12T02:53:47.752Z,0
2016-09-12T02:54:47.704Z,0
2016-09-12T02:55:47.470Z,0
2016-09-12T02:56:47.736Z,0
2016-09-12T02:57:47.434Z,0
2016-09-12T02:58:47.771Z,0
2016-09-12T02:59:47.489Z,0
2016-09-12T03:00:47.521Z,0
2016-09-12T03:01:47.835Z,0
2016-09-12T03:02:47.961Z,0
2016-09-12T03:03:47.617Z,0
2016-09-12T03:04:47.606Z,0
2016-09-12T03:05:47.996Z,0
2016-09-12T03:06:48.012Z,0
2016-09-12T03:07:48.069Z,0
2016-09-12T03:08:47.675Z,0
2016-09-12T03:09:47.845Z,0
2016-09-12T03:10:48.255Z,0
2016-09-12T03:11:48.004Z,0
2016-09-12T03:12:47.935Z,0
2016-09-12T03:13:47.968Z,0
2016-09-12T03:14:48.466Z,0
2016-09-12T03:15:48.604Z,0
2016-09-12T03:16:47.975Z,0
2016-09-12T03:17:48.359Z,0
2016-09-12T03:18:48.640Z,0
2016-09-12T03:19:48.037Z,0
2016-09-12T03:20:48.096Z,0
2016-09-12T03:21:48.117Z,0
2016-09-12T03:22:48.432Z,0
2016-09-12T03:23:48.055Z,0
2016-09-12T03:24:48.368Z,0
2016-09-12T03:25:48.711Z,0
2016-09-12T03:26:48.165Z,0
2016-09-12T03:27:48.200Z,0
2016-09-12T03:28:48.269Z,0
2016-09-12T03:29:48.788Z,0
2016-09-12T03:30:48.282Z,0
2016-09-12T03:31:48.269Z,0
2016-09-12T03:32:48.981Z,0
2016-09-12T03:33:48.307Z,0
2016-09-12T03:34:48.539Z,0
2016-09-12T03:35:48.386Z,0
2016-09-12T03:36:48.648Z,0
2016-09-12T03:37:48.957Z,0
2016-09-12T03:38:48.394Z,0
2016-09-12T03:39:48.365Z,0
2016-09-12T03:40:48.386Z,0
2016-09-12T03:41:48.417Z,0
2016-09-12T03:42:48.820Z,0
2016-09-12T03:43:48.775Z,0
2016-09-12T03:44:48.868Z,0
2016-09-12T03:45:48.549Z,0
2016-09-12T03:46:49.720Z,0
2016-09-12T03:47:48.859Z,0
2016-09-12T03:48:48.901Z,0
2016-09-12T03:49:48.589Z,0
2016-09-12T03:50:48.690Z,0
2016-09-12T03:51:49.261Z,0
2016-09-12T03:52:49.448Z,0
2016-09-12T03:53:48.987Z,0
2016-09-12T03:54:48.982Z,0
2016-09-12T03:55:49.009Z,0
2016-09-12T03:56:48.820Z,0
2016-09-12T03:57:49.046Z,0
2016-09-12T03:58:48.832Z,0
2016-09-12T03:59:49.097Z,0
2016-09-12T04:00:49.139Z,0
2016-09-12T04:01:48.886Z,0
2016-09-12T04:02:49.173Z,0
2016-09-12T04:03:49.289Z,0
2016-09-12T04:04:48.946Z,0
2016-09-12T04:05:48.937Z,0
2016-09-12T04:06:48.951Z,0
2016-09-12T04:07:49.357Z,0
2016-09-12T04:08:49.306Z,0
2016-09-12T04:09:49.684Z,0
2016-09-12T04:10:49.358Z,0
2016-09-12T04:11:49.714Z,0
2016-09-12T04:12:49.834Z,0
2016-09-12T04:13:49.427Z,0
2016-09-12T04:14:49.122Z,0
2016-09-12T04:15:49.651Z,0
2016-09-12T04:16:49.625Z,0
2016-09-12T04:17:51.062Z,0
2016-09-12T04:18:49.516Z,0
2016-09-12T04:19:49.560Z,0
2016-09-12T04:20:49.567Z,0
2016-09-12T04:21:49.276Z,0
2016-09-12T04:22:50.436Z,0
2016-09-12T04:23:49.655Z,0
2016-09-12T04:24:49.654Z,0
2016-09-12T04:25:49.350Z,0
2016-09-12T04:26:50.034Z,0
2016-09-12T04:27:49.710Z,0
2016-09-12T04:28:50.059Z,0
2016-09-12T04:29:49.480Z,0
2016-09-12T04:30:49.468Z,0
2016-09-12T04:31:50.119Z,0
2016-09-12T04:32:49.830Z,0
2016-09-12T04:33:49.799Z,0
2016-09-12T04:34:49.568Z,0
2016-09-12T04:35:49.615Z,0
2016-09-12T04:36:49.911Z,0
2016-09-12T04:37:49.608Z,0
2016-09-12T04:38:50.280Z,0
2016-09-12T04:39:49.738Z,0
2016-09-12T04:40:49.998Z,0
2016-09-12T04:41:49.995Z,0
2016-09-12T04:42:50.149Z,5
2016-09-12T04:43:50.220Z,5
2016-09-12T04:44:49.780Z,5
2016-09-12T04:45:50.534Z,5
2016-09-12T04:46:49.813Z,5
2016-09-12T04:47:49.870Z,5
2016-09-12T04:48:49.907Z,5
2016-09-12T04:49:50.179Z,10
2016-09-12T04:50:49.994Z,10
2016-09-12T04:51:50.488Z,10
2016-09-12T04:52:50.951Z,10
2016-09-12T04:53:50.029Z,10
2016-09-12T04:54:50.057Z,15
2016-09-12T04:55:50.009Z,15
2016-09-12T04:56:50.434Z,15
2016-09-12T04:57:50.670Z,15
2016-09-12T04:58:50.692Z,20
2016-09-12T04:59:50.414Z,20
2016-09-12T05:00:50.165Z,20
2016-09-12T05:01:50.142Z,25
2016-09-12T05:02:50.773Z,25
2016-09-12T05:03:50.559Z,25
2016-09-12T05:04:50.524Z,30
2016-09-12T05:05:50.279Z,30
2016-09-12T05:06:50.565Z,30
2016-09-12T05:07:50.868Z,35
2016-09-12T05:08:50.910Z,35
2016-09-12T05:09:50.339Z,40
2016-09-12T05:10:50.377Z,40
2016-09-12T05:11:50.491Z,40
2016-09-12T05:12:50.506Z,45
2016-09-12T05:13:50.706Z,45
2016-09-12T05:14:50.785Z,50
2016-09-12T05:15:50.470Z,50
2016-09-12T05:16:50.770Z,55
2016-09-12T05:17:50.520Z,55
2016-09-12T05:18:51.406Z,60
2016-09-12T05:19:51.165Z,60
2016-09-12T05:20:51.103Z,60
2016-09-12T05:21:50.603Z,65
2016-09-12T05:22:50.913Z,65
2016-09-12T05:23:50.609Z,70
2016-09-12T05:24:50.705Z,70
2016-09-12T05:25:51.106Z,75
2016-09-12T05:26:51.586Z,75
2016-09-12T05:27:50.980Z,80
2016-09-12T05:28:51.394Z,80
2016-09-12T05:29:51.244Z,85
2016-09-12T05:30:51.155Z,85
2016-09-12T05:31:50.925Z,90
2016-09-12T05:32:51.556Z,90
2016-09-12T05:33:51.535Z,95
2016-09-12T05:34:51.406Z,95
2016-09-12T05:35:51.114Z,100
2016-09-12T05:36:51.436Z,100
2016-09-12T05:37:51.279Z,100
2016-09-12T05:38:51.361Z,100
2016-09-12T05:39:51.043Z,100
2016-09-12T05:40:51.509Z,105
2016-09-12T05:41:51.941Z,105
2016-09-12T05:42:51.866Z,110
2016-09-12T05:43:51.075Z,110
2016-09-12T05:44:51.573Z,115
2016-09-12T05:45:51.311Z,120
2016-09-12T05:46:52.426Z,125
2016-09-12T05:47:51.534Z,135
2016-09-12T05:48:51.200Z,145
2016-09-12T05:49:52.199Z,160
2016-09-12T05:50:51.188Z,235
2016-09-12T05:51:52.469Z,360
2016-09-12T05:52:51.283Z,425
2016-09-12T05:53:51.592Z,440
2016-09-12T05:54:51.339Z,460
2016-09-12T05:55:51.753Z,460
2016-09-12T05:56:51.389Z,470
2016-09-12T05:57:51.679Z,495
2016-09-12T05:58:51.490Z,500
2016-09-12T05:59:51.429Z,515
2016-09-12T06:00:51.458Z,515
2016-09-12T06:01:51.516Z,525
2016-09-12T06:02:51.865Z,540
2016-09-12T06:03:51.893Z,545
2016-09-12T06:04:51.839Z,555
2016-09-12T06:05:52.533Z,565
2016-09-12T06:06:51.600Z,580
2016-09-12T06:07:52.545Z,600
2016-09-12T06:08:52.062Z,595
2016-09-12T06:09:58.230Z,625
2016-09-12T06:10:52.566Z,635
2016-09-12T06:11:51.928Z,635
2016-09-12T06:12:52.724Z,645
2016-09-12T06:13:52.162Z,650
2016-09-12T06:14:52.165Z,665
2016-09-12T06:15:52.787Z,675
2016-09-12T06:16:51.859Z,685
2016-09-12T06:17:53.119Z,690
2016-09-12T06:18:52.610Z,695
2016-09-12T06:19:52.649Z,720
2016-09-12T06:20:58.433Z,730
2016-09-12T06:23:16.015Z,755
2016-09-12T06:24:33.109Z,785
2016-09-12T06:24:43.158Z,780
2016-09-12T06:25:43.279Z,785
2016-09-12T06:26:43.320Z,795
2016-09-12T06:27:43.194Z,790
2016-09-12T06:28:43.590Z,795
2016-09-12T06:29:43.418Z,820
2016-09-12T06:30:43.625Z,830
2016-09-12T06:31:43.401Z,835
2016-09-12T06:32:43.366Z,865
2016-09-12T06:33:43.390Z,875
2016-09-12T06:34:43.734Z,875
2016-09-12T06:35:43.459Z,865
2016-09-12T06:36:43.490Z,875
2016-09-12T06:37:43.907Z,895
2016-09-12T06:38:43.003Z,900
2016-09-12T06:39:43.578Z,910
2016-09-12T06:40:54.783Z,905
2016-09-12T06:58:57.975Z,995
2016-09-12T07:11:48.012Z,1020
2016-09-12T07:31:00.299Z,900
2016-09-12T13:07:36.810Z,210
2016-09-12T13:08:36.844Z,210
2016-09-12T13:09:37.209Z,210
2016-09-12T13:10:35.975Z,210
2016-09-12T13:11:36.614Z,210
2016-09-12T13:12:37.090Z,210
2016-09-12T13:13:36.991Z,210
2016-09-12T13:14:37.433Z,210
2016-09-12T13:15:37.050Z,210
2016-09-12T13:16:36.792Z,210
2016-09-12T13:17:37.513Z,210
2016-09-12T13:18:37.129Z,210
2016-09-12T13:19:37.478Z,210
2016-09-12T13:20:37.644Z,210
2016-09-12T13:21:37.442Z,210
2016-09-12T13:22:37.585Z,215
2016-09-12T13:23:37.651Z,215
2016-09-12T13:24:37.001Z,215
2016-09-12T13:25:37.492Z,215
2016-09-12T13:26:37.691Z,215
2016-09-12T13:27:37.396Z,215
2016-09-12T13:28:37.515Z,215
2016-09-12T13:29:37.761Z,215
2016-09-12T13:30:37.811Z,215
2016-09-12T13:31:37.870Z,215
2016-09-12T13:32:37.615Z,215
2016-09-12T13:33:37.606Z,215
2016-09-12T13:34:37.639Z,215
2016-09-12T13:35:37.339Z,215
2016-09-12T13:36:37.685Z,215
2016-09-12T13:37:38.018Z,215
2016-09-12T13:38:37.424Z,215
2016-09-12T13:39:36.826Z,210
2016-09-12T13:40:37.805Z,210
2016-09-12T13:41:37.506Z,210
2016-09-12T13:42:37.905Z,210
2016-09-12T13:43:38.351Z,210
2016-09-12T13:44:37.843Z,210
2016-09-12T13:45:38.272Z,210
2016-09-12T13:46:38.327Z,210
2016-09-12T13:47:38.334Z,210
2016-09-12T13:48:38.242Z,210
2016-09-12T13:49:38.502Z,210
2016-09-12T13:50:38.090Z,210
2016-09-12T13:51:38.114Z,210
2016-09-12T13:52:38.261Z,210
2016-09-12T13:53:38.175Z,210
2016-09-12T13:54:38.295Z,210
2016-09-12T13:55:38.544Z,210
2016-09-12T13:56:38.587Z,210
2016-09-12T13:57:38.276Z,210
2016-09-12T13:58:38.426Z,205
2016-09-12T13:59:38.372Z,205
2016-09-12T14:00:38.395Z,205
2016-09-12T14:01:38.749Z,205
2016-09-12T14:02:38.803Z,205
2016-09-12T14:03:38.809Z,205
2016-09-12T14:04:38.821Z,205
2016-09-12T14:05:38.253Z,205
2016-09-12T14:06:38.261Z,205
2016-09-12T14:07:38.963Z,205
2016-09-12T14:08:38.313Z,205
2016-09-12T14:09:38.964Z,205
2016-09-12T14:10:39.009Z,205
2016-09-12T14:11:39.034Z,205
2016-09-12T14:12:39.152Z,205
2016-09-12T14:13:38.765Z,205
2016-09-12T14:14:38.784Z,205
2016-09-12T14:15:39.151Z,205
2016-09-12T14:16:39.203Z,205
2016-09-12T14:17:39.224Z,200
2016-09-12T14:18:39.230Z,200
2016-09-12T14:19:38.947Z,200
2016-09-12T14:20:39.335Z,200
2016-09-12T14:21:39.341Z,200
2016-09-12T14:22:39.409Z,200
2016-09-12T14:23:39.060Z,200
2016-09-12T14:24:39.547Z,200
2016-09-12T14:25:39.138Z,200
2016-09-12T14:26:39.453Z,200
2016-09-12T14:27:39.504Z,200
2016-09-12T14:28:39.549Z,200
2016-09-12T14:29:39.262Z,200
2016-09-12T14:30:38.657Z,200
2016-09-12T14:31:39.737Z,195
2016-09-12T14:32:39.715Z,200
2016-09-12T14:33:39.458Z,195
2016-09-12T14:34:39.696Z,195
2016-09-12T14:35:39.731Z,200
2016-09-12T14:36:39.463Z,195
2016-09-12T14:37:39.802Z,195
2016-09-12T14:38:39.825Z,195
2016-09-12T14:39:39.845Z,195
2016-09-12T14:40:39.410Z,195
2016-09-12T14:41:40.055Z,195
2016-09-12T14:42:39.944Z,195
2016-09-12T14:43:40.057Z,195
2016-09-12T14:44:39.835Z,195
2016-09-12T14:45:40.048Z,195
2016-09-12T14:46:40.085Z,195
2016-09-12T14:47:39.497Z,190
2016-09-12T14:48:40.125Z,190
2016-09-12T14:49:40.156Z,190
2016-09-12T14:50:39.859Z,190
2016-09-12T14:51:39.899Z,190
2016-09-12T14:52:40.088Z,190
2016-09-12T14:53:40.464Z,190
2016-09-12T14:54:40.462Z,190
2016-09-12T14:55:40.442Z,190
2016-09-12T14:56:40.391Z,190
2016-09-12T14:57:40.424Z,190
2016-09-12T14:58:40.192Z,190
2016-09-12T14:59:40.135Z,185
2016-09-12T15:00:40.160Z,185
2016-09-12T15:01:40.451Z,185
2016-09-12T15:02:40.213Z,185
2016-09-12T15:03:40.537Z,185
2016-09-12T15:04:40.184Z,185
2016-09-12T15:05:40.621Z,185
2016-09-12T15:06:40.707Z,185
2016-09-12T15:07:40.125Z,185
2016-09-12T15:08:40.738Z,185
2016-09-12T15:09:40.156Z,185
2016-09-12T15:10:40.183Z,185
2016-09-12T15:11:40.835Z,185
2016-09-12T15:12:40.883Z,185
2016-09-12T15:13:40.872Z,180
2016-09-12T15:14:40.900Z,180
2016-09-12T15:15:40.642Z,180
2016-09-12T15:16:40.657Z,180
2016-09-12T15:17:40.991Z,180
2016-09-12T15:18:40.712Z,180
2016-09-12T15:19:41.042Z,180
2016-09-12T15:20:41.076Z,180
2016-09-12T15:21:40.493Z,180
2016-09-12T15:22:41.169Z,180
2016-09-12T15:23:40.557Z,175
2016-09-12T15:24:41.197Z,175
2016-09-12T15:25:40.922Z,175
2016-09-12T15:26:41.277Z,175
2016-09-12T15:27:40.973Z,175
2016-09-12T15:28:41.314Z,175
2016-09-12T15:29:41.025Z,175
2016-09-12T15:30:41.444Z,175
2016-09-12T15:31:41.416Z,175
2016-09-12T15:32:41.117Z,170
2016-09-12T15:33:41.176Z,170
2016-09-12T15:34:41.188Z,170
2016-09-12T15:35:41.559Z,170
2016-09-12T15:36:41.547Z,170
2016-09-12T15:37:41.563Z,170
2016-09-12T15:38:41.304Z,170
2016-09-12T15:39:41.646Z,170
2016-09-12T15:40:41.028Z,165
2016-09-12T15:41:41.059Z,165
2016-09-12T15:42:41.424Z,165
2016-09-12T15:43:41.784Z,165
2016-09-12T15:44:40.894Z,165
2016-09-12T15:45:41.817Z,165
2016-09-12T15:46:41.233Z,165
2016-09-12T15:47:41.577Z,160
2016-09-12T15:48:41.595Z,160
2016-09-12T15:49:41.927Z,160
2016-09-12T15:50:41.992Z,160
2016-09-12T15:51:42.033Z,160
2016-09-12T15:52:42.065Z,160
2016-09-12T15:53:41.789Z,155
2016-09-12T15:54:41.457Z,160
2016-09-12T15:55:41.481Z,155
2016-09-12T15:56:41.810Z,155
2016-09-12T15:57:41.999Z,155
2016-09-12T15:58:41.558Z,155
2016-09-12T15:59:42.224Z,150
2016-09-12T16:00:41.997Z,150
2016-09-12T16:01:42.386Z,150
2016-09-12T16:02:42.342Z,150
2016-09-12T16:03:42.082Z,150
2016-09-12T16:04:42.082Z,145
2016-09-12T16:05:42.089Z,145
2016-09-12T16:06:42.433Z,145
2016-09-12T16:07:42.272Z,145
2016-09-12T16:08:42.506Z,145
2016-09-12T16:09:41.914Z,140
2016-09-12T16:10:41.962Z,140
2016-09-12T16:11:42.405Z,140
2016-09-12T16:12:42.315Z,140
2016-09-12T16:13:42.362Z,140
2016-09-12T16:14:42.370Z,135
2016-09-12T16:15:42.395Z,135
2016-09-12T16:16:42.749Z,135
2016-09-12T16:17:42.466Z,135
2016-09-12T16:18:42.489Z,135
2016-09-12T16:19:42.185Z,130
2016-09-12T16:20:42.577Z,130
2016-09-12T16:21:42.565Z,130
2016-09-12T16:22:42.610Z,130
2016-09-12T16:23:42.628Z,125
2016-09-12T16:24:42.964Z,125
2016-09-12T16:25:42.661Z,125
2016-09-12T16:26:43.076Z,125
2016-09-12T16:27:43.074Z,120
2016-09-12T16:28:43.107Z,120
2016-09-12T16:29:43.238Z,120
2016-09-12T16:30:43.307Z,120
2016-09-12T16:31:43.185Z,115
2016-09-12T16:32:43.291Z,115
2016-09-12T16:33:43.304Z,115
2016-09-12T16:34:42.960Z,115
2016-09-12T16:35:42.657Z,110
2016-09-12T16:36:44.300Z,110
2016-09-12T16:37:43.638Z,110
2016-09-12T16:38:43.550Z,110
2016-09-12T16:39:43.271Z,110
2016-09-12T16:40:43.506Z,110
2016-09-12T16:41:43.632Z,110
2016-09-12T16:42:43.465Z,105
2016-09-12T16:43:43.281Z,105
2016-09-12T16:44:43.708Z,105
2016-09-12T16:45:43.255Z,105
2016-09-12T16:46:43.672Z,100
2016-09-12T16:47:43.327Z,100
2016-09-12T16:48:43.698Z,100
2016-09-12T16:49:43.413Z,95
2016-09-12T16:50:43.491Z,95
2016-09-12T16:51:43.368Z,95
2016-09-12T16:52:43.340Z,90
2016-09-12T16:53:43.837Z,90
2016-09-12T16:54:43.825Z,90
2016-09-12T16:55:43.590Z,90
2016-09-12T16:56:43.605Z,85
2016-09-12T16:57:43.962Z,85
2016-09-12T16:58:43.651Z,85
2016-09-12T16:59:43.704Z,80
2016-09-12T17:00:43.745Z,80
2016-09-12T17:01:44.168Z,80
2016-09-12T17:02:44.074Z,75
2016-09-12T17:03:43.573Z,75
2016-09-12T17:04:43.824Z,70
2016-09-12T17:05:44.196Z,70
2016-09-12T17:06:44.295Z,70
2016-09-12T17:07:44.281Z,65
2016-09-12T17:08:44.237Z,65
2016-09-12T17:09:44.274Z,65
2016-09-12T17:10:43.980Z,60
2016-09-12T17:11:44.360Z,60
2016-09-12T17:12:44.486Z,60
2016-09-12T17:13:44.092Z,55
2016-09-12T17:14:44.134Z,55
2016-09-12T17:15:43.846Z,55
2016-09-12T17:16:44.485Z,50
2016-09-12T17:17:44.518Z,50
2016-09-12T17:18:44.217Z,50
2016-09-12T17:19:44.261Z,45
2016-09-12T17:20:44.267Z,45
2016-09-12T17:21:43.696Z,45
2016-09-12T17:22:44.680Z,40
2016-09-12T17:23:44.843Z,40
2016-09-12T17:24:44.385Z,40
2016-09-12T17:25:44.719Z,35
2016-09-12T17:26:44.749Z,35
2016-09-12T17:27:44.520Z,35
2016-09-12T17:28:44.824Z,30
2016-09-12T17:29:44.538Z,30
2016-09-12T17:30:44.627Z,30
2016-09-12T17:31:45.034Z,25
2016-09-12T17:32:44.992Z,25
2016-09-12T17:33:44.954Z,25
2016-09-12T17:34:45.010Z,20
2016-09-12T17:35:44.688Z,20
2016-09-12T17:36:44.701Z,20
2016-09-12T17:37:44.807Z,20
2016-09-12T17:38:44.793Z,15
2016-09-12T17:39:44.813Z,15
2016-09-12T17:40:44.218Z,15
2016-09-12T17:41:45.300Z,15
2016-09-12T17:42:44.896Z,10
2016-09-12T17:43:44.602Z,10
2016-09-12T17:44:45.006Z,10
2016-09-12T17:45:44.992Z,10
2016-09-12T17:46:45.329Z,10
2016-09-12T17:47:45.336Z,5
2016-09-12T17:48:45.074Z,5
2016-09-12T17:49:45.101Z,5
2016-09-12T17:50:45.420Z,5
2016-09-12T17:52:17.103Z,5
2016-09-12T17:52:45.626Z,5
2016-09-12T17:53:45.519Z,5
2016-09-12T17:54:45.262Z,0
2016-09-12T17:55:45.582Z,0
2016-09-12T17:56:44.971Z,0
2016-09-12T17:57:45.643Z,0
2016-09-12T17:58:45.634Z,0
2016-09-12T17:59:44.745Z,0
2016-09-12T18:00:45.393Z,0
2016-09-12T18:01:45.512Z,0
2016-09-12T18:02:45.476Z,0
2016-09-12T18:03:45.454Z,0
2016-09-12T18:04:45.818Z,0
2016-09-12T18:05:45.924Z,0
2016-09-12T18:06:45.869Z,0
2016-09-12T18:07:45.345Z,0
2016-09-12T18:08:45.300Z,0
2016-09-12T18:09:45.670Z,0
2016-09-12T18:10:45.974Z,0
2016-09-12T18:11:46.227Z,0
2016-09-12T18:12:45.781Z,0
2016-09-12T18:13:45.741Z,0
2016-09-12T18:14:45.773Z,0
2016-09-12T18:15:46.132Z,0
2016-09-12T18:16:46.222Z,0
2016-09-12T18:17:45.233Z,0
2016-09-12T18:18:46.225Z,0
2016-09-12T18:19:45.591Z,0
2016-09-12T18:20:45.635Z,0
2016-09-12T18:21:46.273Z,0
2016-09-12T18:22:46.000Z,0
2016-09-12T18:23:46.376Z,0
2016-09-12T18:24:46.481Z,0
2016-09-12T18:25:46.091Z,0
2016-09-12T18:26:46.312Z,0
2016-09-12T18:27:46.247Z,0
2016-09-12T18:28:46.865Z,0
2016-09-12T18:29:46.811Z,0
2016-09-12T18:30:46.983Z,0
2016-09-12T18:31:46.360Z,0
2016-09-12T18:32:46.600Z,0
2016-09-12T18:33:46.321Z,0
2016-09-12T18:34:46.928Z,0
2016-09-12T18:35:46.826Z,0
2016-09-12T18:36:46.128Z,0
2016-09-12T18:37:46.382Z,0
2016-09-12T18:38:46.943Z,0
2016-09-12T18:39:46.802Z,0
2016-09-12T18:40:46.910Z,0
2016-09-12T18:41:47.198Z,0
2016-09-12T18:42:46.893Z,0
2016-09-12T18:43:48.291Z,0
2016-09-12T18:44:46.652Z,0
2016-09-12T18:45:47.014Z,0
2016-09-12T18:46:47.030Z,0
2016-09-12T18:47:46.989Z,0
2016-09-12T18:48:47.241Z,0
2016-09-12T18:49:47.134Z,0
2016-09-12T18:50:46.923Z,0
2016-09-12T18:51:47.093Z,0
2016-09-12T18:52:47.178Z,0
2016-09-12T18:53:46.535Z,0
2016-09-12T18:54:46.952Z,0
2016-09-12T18:55:47.310Z,0
2016-09-12T18:56:47.511Z,0
2016-09-12T18:57:47.294Z,0
2016-09-12T18:58:47.322Z,0
2016-09-12T18:59:47.053Z,0
2016-09-12T19:00:47.383Z,0
2016-09-12T19:01:47.381Z,0
2016-09-12T19:02:47.396Z,0
2016-09-12T19:03:47.191Z,0
2016-09-12T19:04:47.452Z,0
2016-09-12T19:05:47.296Z,0
2016-09-12T19:06:47.753Z,0
2016-09-12T19:07:47.649Z,0
2016-09-12T19:08:47.592Z,0
2016-09-12T19:09:47.043Z,0
2016-09-12T19:10:47.629Z,0
2016-09-12T19:11:47.448Z,0
2016-09-12T19:12:47.479Z,0
2016-09-12T19:13:47.385Z,0
2016-09-12T19:14:47.440Z,0
2016-09-12T19:15:47.452Z,0
2016-09-12T19:16:47.822Z,0
2016-09-12T19:17:47.523Z,0
2016-09-12T19:18:47.542Z,0
2016-09-12T19:19:47.566Z,0
2016-09-12T19:20:47.896Z,0
2016-09-12T19:21:48.066Z,0
2016-09-12T19:22:47.351Z,0
2016-09-12T19:23:47.982Z,0
2016-09-12T19:24:47.677Z,0
2016-09-12T19:25:47.690Z,0
2016-09-12T19:26:48.206Z,0
2016-09-12T19:27:47.729Z,0
2016-09-12T19:28:47.769Z,0
2016-09-12T19:29:48.153Z,0
2016-09-12T19:30:47.636Z,0
2016-09-12T19:31:47.341Z,0
2016-09-12T19:32:47.899Z,0
2016-09-12T19:33:47.588Z,0
2016-09-12T19:34:47.636Z,0
2016-09-12T19:35:48.257Z,0
2016-09-12T19:36:48.326Z,0
2016-09-12T19:37:48.332Z,0
2016-09-12T19:38:48.035Z,0
2016-09-12T19:39:48.395Z,0
2016-09-12T19:40:48.093Z,0
2016-09-12T19:41:47.816Z,0
2016-09-12T19:42:48.482Z,0
2016-09-12T19:43:48.183Z,0
2016-09-12T19:44:48.551Z,0
2016-09-12T19:45:47.942Z,0
2016-09-12T19:46:48.615Z,0
2016-09-12T19:47:48.615Z,0
2016-09-12T19:48:48.364Z,0
2016-09-12T19:49:48.764Z,0
2016-09-12T19:50:48.434Z,0
2016-09-12T19:51:48.423Z,0
2016-09-12T19:52:48.096Z,0
2016-09-12T19:53:48.788Z,0
2016-09-12T19:54:48.772Z,0
2016-09-12T19:55:48.201Z,0
2016-09-12T19:56:48.540Z,0
2016-09-12T19:57:48.537Z,0
2016-09-12T19:58:49.041Z,0
2016-09-12T19:59:48.267Z,0
2016-09-12T20:00:48.377Z,0
2016-09-12T20:01:48.988Z,0
2016-09-12T20:02:48.662Z,0
2016-09-12T20:03:48.686Z,0
2016-09-12T20:04:48.472Z,0
2016-09-12T20:05:48.750Z,0
2016-09-12T20:06:48.791Z,0
2016-09-12T20:07:48.851Z,0
2016-09-12T20:08:49.121Z,0
2016-09-12T20:09:48.526Z,0
2016-09-12T20:10:49.225Z,0
2016-09-12T20:11:49.214Z,0
2016-09-12T20:12:48.595Z,0
2016-09-12T20:13:48.957Z,0
2016-09-12T20:14:49.344Z,0
2016-09-12T20:15:48.077Z,0
2016-09-12T20:16:49.053Z,0
2016-09-12T20:17:49.073Z,0
2016-09-12T20:18:48.761Z,0
2016-09-12T20:19:49.412Z,0
2016-09-12T20:20:49.488Z,0
2016-09-12T20:21:49.265Z,0
2016-09-12T20:22:49.576Z,0
2016-09-12T20:23:49.230Z,0
2016-09-12T20:24:49.567Z,0
2016-09-12T20:25:49.582Z,0
2016-09-12T20:26:49.621Z,0
2016-09-12T20:27:49.599Z,0
2016-09-12T20:28:49.346Z,0
2016-09-12T20:29:49.426Z,0
2016-09-12T20:30:49.757Z,0
2016-09-12T20:31:49.115Z,0
2016-09-12T20:32:49.115Z,0
2016-09-12T20:33:49.492Z,0
2016-09-12T20:34:50.007Z,0
2016-09-12T20:35:49.965Z,0
2016-09-12T20:36:49.974Z,0
2016-09-12T20:37:49.286Z,0
2016-09-12T20:38:49.711Z,0
2016-09-12T20:39:49.669Z,0
2016-09-12T20:40:49.355Z,0
2016-09-12T20:41:49.409Z,0
2016-09-12T20:42:50.018Z,0
2016-09-12T20:43:49.727Z,0
2016-09-12T20:44:50.016Z,0
2016-09-12T20:45:50.141Z,0